sensor_id;sensor_type;location;lat;lon;timestamp;temperature;humidity
14031;DHT22;7090;49.436;8.490;2024-03-17T00:02:22;8.00;99.90
14031;DHT22;7090;49.436;8.490;2024-03-17T00:04:48;7.80;99.90
14031;DHT22;7090;49.436;8.490;2024-03-17T00:07:14;7.70;99.90
14031;DHT22;7090;49.436;8.490;2024-03-17T00:09:40;7.70;99.90
14031;DHT22;7090;49.436;8.490;2024-03-17T00:12:06;7.70;99.90
14031;DHT22;7090;49.436;8.490;2024-03-17T00:14:33;7.80;99.90
14031;DHT22;7090;49.436;8.490;2024-03-17T00:17:02;7.80;99.90
14031;DHT22;7090;49.436;8.490;2024-03-17T00:19:28;7.80;99.90
14031;DHT22;7090;49.436;8.490;2024-03-17T00:21:54;7.70;99.90
14031;DHT22;7090;49.436;8.490;2024-03-17T00:24:20;7.60;99.90
14031;DHT22;7090;49.436;8.490;2024-03-17T00:26:46;7.50;99.90
14031;DHT22;7090;49.436;8.490;2024-03-17T00:29:12;7.40;99.90
14031;DHT22;7090;49.436;8.490;2024-03-17T00:31:37;7.50;99.90
14031;DHT22;7090;49.436;8.490;2024-03-17T00:34:03;7.50;99.90
14031;DHT22;7090;49.436;8.490;2024-03-17T00:36:32;7.40;99.90
14031;DHT22;7090;49.436;8.490;2024-03-17T00:38:57;7.30;99.90
14031;DHT22;7090;49.436;8.490;2024-03-17T00:41:23;7.20;99.90
14031;DHT22;7090;49.436;8.490;2024-03-17T00:43:52;7.10;99.90
14031;DHT22;7090;49.436;8.490;2024-03-17T00:46:21;7.00;99.90
14031;DHT22;7090;49.436;8.490;2024-03-17T00:48:48;7.00;99.90
14031;DHT22;7090;49.436;8.490;2024-03-17T00:51:14;7.20;99.90
14031;DHT22;7090;49.436;8.490;2024-03-17T00:53:40;7.20;99.90
14031;DHT22;7090;49.436;8.490;2024-03-17T00:56:06;7.20;99.90
14031;DHT22;7090;49.436;8.490;2024-03-17T00:58:32;7.10;99.90
14031;DHT22;7090;49.436;8.490;2024-03-17T01:00:57;7.20;99.90
14031;DHT22;7090;49.436;8.490;2024-03-17T01:03:23;7.10;99.90
14031;DHT22;7090;49.436;8.490;2024-03-17T01:05:48;7.20;99.90
14031;DHT22;7090;49.436;8.490;2024-03-17T01:08:18;7.10;99.90
14031;DHT22;7090;49.436;8.490;2024-03-17T01:10:44;7.00;99.90
14031;DHT22;7090;49.436;8.490;2024-03-17T01:13:10;6.90;99.90
14031;DHT22;7090;49.436;8.490;2024-03-17T01:15:37;6.90;99.90
14031;DHT22;7090;49.436;8.490;2024-03-17T01:18:03;6.90;99.90
14031;DHT22;7090;49.436;8.490;2024-03-17T01:20:30;6.90;99.90
14031;DHT22;7090;49.436;8.490;2024-03-17T01:22:56;6.90;99.90
14031;DHT22;7090;49.436;8.490;2024-03-17T01:25:21;6.80;99.90
14031;DHT22;7090;49.436;8.490;2024-03-17T01:27:47;6.70;99.90
14031;DHT22;7090;49.436;8.490;2024-03-17T01:30:12;6.70;99.90
14031;DHT22;7090;49.436;8.490;2024-03-17T01:32:38;6.70;99.90
14031;DHT22;7090;49.436;8.490;2024-03-17T01:35:05;6.50;99.90
14031;DHT22;7090;49.436;8.490;2024-03-17T01:37:33;6.50;99.90
14031;DHT22;7090;49.436;8.490;2024-03-17T01:39:59;6.60;99.90
14031;DHT22;7090;49.436;8.490;2024-03-17T01:42:25;6.60;99.90
14031;DHT22;7090;49.436;8.490;2024-03-17T01:44:50;6.60;99.90
14031;DHT22;7090;49.436;8.490;2024-03-17T01:47:17;6.50;99.90
14031;DHT22;7090;49.436;8.490;2024-03-17T01:49:47;6.50;99.90
14031;DHT22;7090;49.436;8.490;2024-03-17T01:52:17;6.40;99.90
14031;DHT22;7090;49.436;8.490;2024-03-17T01:54:44;6.40;99.90
14031;DHT22;7090;49.436;8.490;2024-03-17T01:57:11;6.20;99.90
14031;DHT22;7090;49.436;8.490;2024-03-17T01:59:37;6.20;99.90
14031;DHT22;7090;49.436;8.490;2024-03-17T02:02:03;6.20;99.90
14031;DHT22;7090;49.436;8.490;2024-03-17T02:04:30;6.10;99.90
14031;DHT22;7090;49.436;8.490;2024-03-17T02:06:55;6.00;99.90
14031;DHT22;7090;49.436;8.490;2024-03-17T02:09:21;6.00;99.90
14031;DHT22;7090;49.436;8.490;2024-03-17T02:11:47;5.90;99.90
14031;DHT22;7090;49.436;8.490;2024-03-17T02:14:13;5.80;99.90
14031;DHT22;7090;49.436;8.490;2024-03-17T02:16:40;5.80;99.90
14031;DHT22;7090;49.436;8.490;2024-03-17T02:19:06;5.80;99.90
14031;DHT22;7090;49.436;8.490;2024-03-17T02:21:32;5.80;99.90
14031;DHT22;7090;49.436;8.490;2024-03-17T02:23:57;6.00;99.90
14031;DHT22;7090;49.436;8.490;2024-03-17T02:26:25;6.10;99.90
14031;DHT22;7090;49.436;8.490;2024-03-17T02:28:51;6.10;99.90
14031;DHT22;7090;49.436;8.490;2024-03-17T02:31:17;6.00;99.90
14031;DHT22;7090;49.436;8.490;2024-03-17T02:33:43;5.90;99.90
14031;DHT22;7090;49.436;8.490;2024-03-17T02:36:10;5.90;99.90
14031;DHT22;7090;49.436;8.490;2024-03-17T02:38:40;5.60;99.90
14031;DHT22;7090;49.436;8.490;2024-03-17T02:41:24;5.60;99.90
14031;DHT22;7090;49.436;8.490;2024-03-17T02:43:50;5.80;99.90
14031;DHT22;7090;49.436;8.490;2024-03-17T02:46:17;5.90;99.90
14031;DHT22;7090;49.436;8.490;2024-03-17T02:48:45;5.80;99.90
14031;DHT22;7090;49.436;8.490;2024-03-17T02:51:17;5.70;99.90
14031;DHT22;7090;49.436;8.490;2024-03-17T02:53:44;5.70;99.90
14031;DHT22;7090;49.436;8.490;2024-03-17T02:56:14;5.70;99.90
14031;DHT22;7090;49.436;8.490;2024-03-17T02:58:43;5.70;99.90
14031;DHT22;7090;49.436;8.490;2024-03-17T03:01:09;5.70;99.90
14031;DHT22;7090;49.436;8.490;2024-03-17T03:03:36;5.80;99.90
14031;DHT22;7090;49.436;8.490;2024-03-17T03:06:02;5.80;99.90
14031;DHT22;7090;49.436;8.490;2024-03-17T03:08:37;5.80;99.90
14031;DHT22;7090;49.436;8.490;2024-03-17T03:11:04;5.80;99.90
14031;DHT22;7090;49.436;8.490;2024-03-17T03:13:31;5.70;99.90
14031;DHT22;7090;49.436;8.490;2024-03-17T03:15:57;5.60;99.90
14031;DHT22;7090;49.436;8.490;2024-03-17T03:18:23;5.50;99.90
14031;DHT22;7090;49.436;8.490;2024-03-17T03:20:52;5.40;99.90
14031;DHT22;7090;49.436;8.490;2024-03-17T03:23:21;5.30;99.90
14031;DHT22;7090;49.436;8.490;2024-03-17T03:25:46;5.30;99.90
14031;DHT22;7090;49.436;8.490;2024-03-17T03:28:13;5.40;99.90
14031;DHT22;7090;49.436;8.490;2024-03-17T03:30:38;5.50;99.90
14031;DHT22;7090;49.436;8.490;2024-03-17T03:33:05;5.50;99.90
14031;DHT22;7090;49.436;8.490;2024-03-17T03:35:31;5.50;99.90
14031;DHT22;7090;49.436;8.490;2024-03-17T03:37:56;5.50;99.90
14031;DHT22;7090;49.436;8.490;2024-03-17T03:40:22;5.50;99.90
14031;DHT22;7090;49.436;8.490;2024-03-17T03:42:48;5.60;99.90
14031;DHT22;7090;49.436;8.490;2024-03-17T03:45:14;5.70;99.90
14031;DHT22;7090;49.436;8.490;2024-03-17T03:47:40;5.70;99.90
14031;DHT22;7090;49.436;8.490;2024-03-17T03:50:10;5.70;99.90
14031;DHT22;7090;49.436;8.490;2024-03-17T03:52:36;5.60;99.90
14031;DHT22;7090;49.436;8.490;2024-03-17T03:55:03;5.70;99.90
14031;DHT22;7090;49.436;8.490;2024-03-17T03:57:30;5.80;99.90
14031;DHT22;7090;49.436;8.490;2024-03-17T03:59:57;5.80;99.90
14031;DHT22;7090;49.436;8.490;2024-03-17T04:02:23;5.80;99.90
14031;DHT22;7090;49.436;8.490;2024-03-17T04:04:50;5.80;99.90
14031;DHT22;7090;49.436;8.490;2024-03-17T04:07:16;5.80;99.90
14031;DHT22;7090;49.436;8.490;2024-03-17T04:09:42;5.80;99.90
14031;DHT22;7090;49.436;8.490;2024-03-17T04:12:07;5.60;99.90
14031;DHT22;7090;49.436;8.490;2024-03-17T04:14:33;5.50;99.90
14031;DHT22;7090;49.436;8.490;2024-03-17T04:16:59;5.40;99.90
14031;DHT22;7090;49.436;8.490;2024-03-17T04:19:24;5.40;99.90
14031;DHT22;7090;49.436;8.490;2024-03-17T04:21:51;5.30;99.90
14031;DHT22;7090;49.436;8.490;2024-03-17T04:24:17;5.20;99.90
14031;DHT22;7090;49.436;8.490;2024-03-17T04:26:43;5.10;99.90
14031;DHT22;7090;49.436;8.490;2024-03-17T04:29:09;5.10;99.90
14031;DHT22;7090;49.436;8.490;2024-03-17T04:31:34;5.00;99.90
14031;DHT22;7090;49.436;8.490;2024-03-17T04:34:00;5.00;99.90
14031;DHT22;7090;49.436;8.490;2024-03-17T04:36:26;5.00;99.90
14031;DHT22;7090;49.436;8.490;2024-03-17T04:38:52;5.00;99.90
14031;DHT22;7090;49.436;8.490;2024-03-17T04:41:19;5.20;99.90
14031;DHT22;7090;49.436;8.490;2024-03-17T04:43:45;5.20;99.90
14031;DHT22;7090;49.436;8.490;2024-03-17T04:46:11;5.30;99.90
14031;DHT22;7090;49.436;8.490;2024-03-17T04:48:38;5.40;99.90
14031;DHT22;7090;49.436;8.490;2024-03-17T04:51:04;5.50;99.90
14031;DHT22;7090;49.436;8.490;2024-03-17T04:53:30;5.50;99.90
14031;DHT22;7090;49.436;8.490;2024-03-17T04:56:04;5.50;99.90
14031;DHT22;7090;49.436;8.490;2024-03-17T04:58:31;5.50;99.90
14031;DHT22;7090;49.436;8.490;2024-03-17T05:00:56;5.60;99.90
14031;DHT22;7090;49.436;8.490;2024-03-17T05:03:22;5.60;99.90
14031;DHT22;7090;49.436;8.490;2024-03-17T05:05:48;5.70;99.90
14031;DHT22;7090;49.436;8.490;2024-03-17T05:08:13;5.70;99.90
14031;DHT22;7090;49.436;8.490;2024-03-17T05:10:39;5.70;99.90
14031;DHT22;7090;49.436;8.490;2024-03-17T05:13:04;5.70;99.90
14031;DHT22;7090;49.436;8.490;2024-03-17T05:15:30;5.60;99.90
14031;DHT22;7090;49.436;8.490;2024-03-17T05:17:55;5.60;99.90
14031;DHT22;7090;49.436;8.490;2024-03-17T05:20:22;5.60;99.90
14031;DHT22;7090;49.436;8.490;2024-03-17T05:22:48;5.60;99.90
14031;DHT22;7090;49.436;8.490;2024-03-17T05:25:14;5.60;99.90
14031;DHT22;7090;49.436;8.490;2024-03-17T05:27:40;5.70;99.90
14031;DHT22;7090;49.436;8.490;2024-03-17T05:30:06;5.60;99.90
14031;DHT22;7090;49.436;8.490;2024-03-17T05:32:34;5.60;99.90
14031;DHT22;7090;49.436;8.490;2024-03-17T05:34:59;5.60;99.90
14031;DHT22;7090;49.436;8.490;2024-03-17T05:37:25;5.60;99.90
14031;DHT22;7090;49.436;8.490;2024-03-17T05:39:50;5.70;99.90
14031;DHT22;7090;49.436;8.490;2024-03-17T05:42:16;5.70;99.90
14031;DHT22;7090;49.436;8.490;2024-03-17T05:44:41;5.60;99.90
14031;DHT22;7090;49.436;8.490;2024-03-17T05:47:18;5.70;99.90
14031;DHT22;7090;49.436;8.490;2024-03-17T05:49:44;5.70;99.90
14031;DHT22;7090;49.436;8.490;2024-03-17T05:52:11;5.60;99.90
14031;DHT22;7090;49.436;8.490;2024-03-17T05:54:36;5.50;99.90
14031;DHT22;7090;49.436;8.490;2024-03-17T05:57:03;5.50;99.90
14031;DHT22;7090;49.436;8.490;2024-03-17T05:59:30;5.50;99.90
14031;DHT22;7090;49.436;8.490;2024-03-17T06:01:56;5.50;99.90
14031;DHT22;7090;49.436;8.490;2024-03-17T06:04:22;5.50;99.90
14031;DHT22;7090;49.436;8.490;2024-03-17T06:06:48;5.50;99.90
14031;DHT22;7090;49.436;8.490;2024-03-17T06:09:14;5.50;99.90
14031;DHT22;7090;49.436;8.490;2024-03-17T06:11:43;5.60;99.90
14031;DHT22;7090;49.436;8.490;2024-03-17T06:14:09;5.70;99.90
14031;DHT22;7090;49.436;8.490;2024-03-17T06:16:37;5.80;99.90
14031;DHT22;7090;49.436;8.490;2024-03-17T06:19:03;5.80;99.90
14031;DHT22;7090;49.436;8.490;2024-03-17T06:21:28;5.90;99.90
14031;DHT22;7090;49.436;8.490;2024-03-17T06:23:54;6.00;99.90
14031;DHT22;7090;49.436;8.490;2024-03-17T06:26:19;6.30;99.90
14031;DHT22;7090;49.436;8.490;2024-03-17T06:28:46;6.50;99.90
14031;DHT22;7090;49.436;8.490;2024-03-17T06:31:12;6.60;99.90
14031;DHT22;7090;49.436;8.490;2024-03-17T06:33:37;6.60;99.90
14031;DHT22;7090;49.436;8.490;2024-03-17T06:36:04;6.60;99.90
14031;DHT22;7090;49.436;8.490;2024-03-17T06:38:30;6.60;99.90
14031;DHT22;7090;49.436;8.490;2024-03-17T06:40:55;6.70;99.90
14031;DHT22;7090;49.436;8.490;2024-03-17T06:43:21;6.80;99.90
14031;DHT22;7090;49.436;8.490;2024-03-17T06:45:57;7.00;99.90
14031;DHT22;7090;49.436;8.490;2024-03-17T06:48:24;7.20;99.90
14031;DHT22;7090;49.436;8.490;2024-03-17T06:50:50;7.40;99.90
14031;DHT22;7090;49.436;8.490;2024-03-17T06:53:23;7.60;99.90
14031;DHT22;7090;49.436;8.490;2024-03-17T06:56:07;7.80;99.90
14031;DHT22;7090;49.436;8.490;2024-03-17T06:58:33;8.00;99.90
14031;DHT22;7090;49.436;8.490;2024-03-17T07:01:00;7.90;99.90
14031;DHT22;7090;49.436;8.490;2024-03-17T07:03:28;7.80;99.90
14031;DHT22;7090;49.436;8.490;2024-03-17T07:05:58;7.80;99.90
14031;DHT22;7090;49.436;8.490;2024-03-17T07:08:25;7.80;99.90
14031;DHT22;7090;49.436;8.490;2024-03-17T07:11:06;7.80;99.90
14031;DHT22;7090;49.436;8.490;2024-03-17T07:13:33;7.80;99.90
14031;DHT22;7090;49.436;8.490;2024-03-17T07:16:00;7.80;99.90
14031;DHT22;7090;49.436;8.490;2024-03-17T07:18:27;7.60;99.90
14031;DHT22;7090;49.436;8.490;2024-03-17T07:20:57;7.60;99.90
14031;DHT22;7090;49.436;8.490;2024-03-17T07:23:23;7.80;99.90
14031;DHT22;7090;49.436;8.490;2024-03-17T07:25:57;7.90;99.90
14031;DHT22;7090;49.436;8.490;2024-03-17T07:28:23;8.20;99.90
14031;DHT22;7090;49.436;8.490;2024-03-17T07:33:19;8.60;99.90
14031;DHT22;7090;49.436;8.490;2024-03-17T07:35:54;8.60;99.90
14031;DHT22;7090;49.436;8.490;2024-03-17T07:38:22;8.90;99.90
14031;DHT22;7090;49.436;8.490;2024-03-17T07:41:05;9.30;99.90
14031;DHT22;7090;49.436;8.490;2024-03-17T07:43:32;9.90;99.90
14031;DHT22;7090;49.436;8.490;2024-03-17T07:46:02;10.30;99.90
14031;DHT22;7090;49.436;8.490;2024-03-17T07:48:29;10.50;99.90
14031;DHT22;7090;49.436;8.490;2024-03-17T07:50:56;10.80;99.90
14031;DHT22;7090;49.436;8.490;2024-03-17T07:53:22;11.10;99.90
14031;DHT22;7090;49.436;8.490;2024-03-17T07:55:57;11.30;1.00
14031;DHT22;7090;49.436;8.490;2024-03-17T07:58:24;11.10;1.00
14031;DHT22;7090;49.436;8.490;2024-03-17T08:00:51;11.30;58.60
14031;DHT22;7090;49.436;8.490;2024-03-17T08:03:18;11.40;1.00
14031;DHT22;7090;49.436;8.490;2024-03-17T08:05:48;11.50;1.00
14031;DHT22;7090;49.436;8.490;2024-03-17T08:08:15;11.70;1.00
14031;DHT22;7090;49.436;8.490;2024-03-17T08:10:41;11.60;1.00
14031;DHT22;7090;49.436;8.490;2024-03-17T08:13:06;11.40;1.00
14031;DHT22;7090;49.436;8.490;2024-03-17T08:15:34;10.70;85.30
14031;DHT22;7090;49.436;8.490;2024-03-17T08:18:00;11.00;47.80
14031;DHT22;7090;49.436;8.490;2024-03-17T08:20:25;11.10;1.00
14031;DHT22;7090;49.436;8.490;2024-03-17T08:22:51;10.90;1.00
14031;DHT22;7090;49.436;8.490;2024-03-17T08:25:17;10.70;1.00
14031;DHT22;7090;49.436;8.490;2024-03-17T08:27:43;10.30;1.00
14031;DHT22;7090;49.436;8.490;2024-03-17T08:30:09;10.40;1.00
14031;DHT22;7090;49.436;8.490;2024-03-17T08:32:41;10.50;1.00
14031;DHT22;7090;49.436;8.490;2024-03-17T08:35:07;11.30;1.00
14031;DHT22;7090;49.436;8.490;2024-03-17T08:37:36;11.60;1.00
14031;DHT22;7090;49.436;8.490;2024-03-17T08:40:01;11.90;99.90
14031;DHT22;7090;49.436;8.490;2024-03-17T08:42:27;12.40;99.90
14031;DHT22;7090;49.436;8.490;2024-03-17T08:44:53;12.50;1.00
14031;DHT22;7090;49.436;8.490;2024-03-17T08:47:19;12.30;1.00
14031;DHT22;7090;49.436;8.490;2024-03-17T08:49:45;12.00;1.00
14031;DHT22;7090;49.436;8.490;2024-03-17T08:52:11;12.20;5.90
14031;DHT22;7090;49.436;8.490;2024-03-17T08:54:37;11.90;1.00
14031;DHT22;7090;49.436;8.490;2024-03-17T08:57:02;11.90;1.00
14031;DHT22;7090;49.436;8.490;2024-03-17T08:59:28;11.80;1.00
14031;DHT22;7090;49.436;8.490;2024-03-17T09:01:53;11.60;1.00
14031;DHT22;7090;49.436;8.490;2024-03-17T09:04:19;11.70;1.00
14031;DHT22;7090;49.436;8.490;2024-03-17T09:06:44;11.70;99.90
14031;DHT22;7090;49.436;8.490;2024-03-17T09:09:10;11.80;99.90
14031;DHT22;7090;49.436;8.490;2024-03-17T09:11:38;12.20;5.50
14031;DHT22;7090;49.436;8.490;2024-03-17T09:14:04;12.20;54.80
14031;DHT22;7090;49.436;8.490;2024-03-17T09:16:30;12.70;1.00
14031;DHT22;7090;49.436;8.490;2024-03-17T09:18:57;12.90;99.90
14031;DHT22;7090;49.436;8.490;2024-03-17T09:21:23;12.50;50.10
14031;DHT22;7090;49.436;8.490;2024-03-17T09:23:49;12.50;90.00
14031;DHT22;7090;49.436;8.490;2024-03-17T09:26:15;12.40;77.50
14031;DHT22;7090;49.436;8.490;2024-03-17T09:28:42;12.10;55.10
14031;DHT22;7090;49.436;8.490;2024-03-17T09:31:10;12.30;55.90
14031;DHT22;7090;49.436;8.490;2024-03-17T09:33:37;12.30;99.90
14031;DHT22;7090;49.436;8.490;2024-03-17T09:36:07;12.80;1.00
14031;DHT22;7090;49.436;8.490;2024-03-17T09:38:34;13.00;29.80
14031;DHT22;7090;49.436;8.490;2024-03-17T09:41:01;13.30;1.00
14031;DHT22;7090;49.436;8.490;2024-03-17T09:43:28;12.90;7.00
14031;DHT22;7090;49.436;8.490;2024-03-17T09:45:55;12.40;5.80
14031;DHT22;7090;49.436;8.490;2024-03-17T09:48:24;12.30;50.80
14031;DHT22;7090;49.436;8.490;2024-03-17T09:50:50;12.30;99.90
14031;DHT22;7090;49.436;8.490;2024-03-17T09:53:25;12.70;1.00
14031;DHT22;7090;49.436;8.490;2024-03-17T09:55:52;12.70;1.00
14031;DHT22;7090;49.436;8.490;2024-03-17T09:58:19;12.90;18.60
14031;DHT22;7090;49.436;8.490;2024-03-17T10:00:45;13.00;1.00
14031;DHT22;7090;49.436;8.490;2024-03-17T10:03:11;12.80;1.00
14031;DHT22;7090;49.436;8.490;2024-03-17T10:05:38;12.90;95.70
14031;DHT22;7090;49.436;8.490;2024-03-17T10:08:04;12.80;8.10
14031;DHT22;7090;49.436;8.490;2024-03-17T10:10:30;12.70;51.20
14031;DHT22;7090;49.436;8.490;2024-03-17T10:12:55;13.10;1.00
14031;DHT22;7090;49.436;8.490;2024-03-17T10:15:21;13.10;1.00
14031;DHT22;7090;49.436;8.490;2024-03-17T10:17:49;13.00;60.80
14031;DHT22;7090;49.436;8.490;2024-03-17T10:25:28;13.80;12.60
14031;DHT22;7090;49.436;8.490;2024-03-17T10:27:55;14.10;99.90
14031;DHT22;7090;49.436;8.490;2024-03-17T10:30:22;14.40;99.90
14031;DHT22;7090;49.436;8.490;2024-03-17T10:32:58;15.30;99.90
14031;DHT22;7090;49.436;8.490;2024-03-17T10:35:50;15.50;1.00
14031;DHT22;7090;49.436;8.490;2024-03-17T10:38:16;15.00;1.00
14031;DHT22;7090;49.436;8.490;2024-03-17T10:40:43;14.40;1.00
14031;DHT22;7090;49.436;8.490;2024-03-17T10:43:10;14.40;1.00
14031;DHT22;7090;49.436;8.490;2024-03-17T10:45:37;14.70;1.00
14031;DHT22;7090;49.436;8.490;2024-03-17T10:48:07;14.80;1.00
14031;DHT22;7090;49.436;8.490;2024-03-17T10:50:36;14.90;1.00
14031;DHT22;7090;49.436;8.490;2024-03-17T10:53:05;14.80;1.00
14031;DHT22;7090;49.436;8.490;2024-03-17T10:55:47;15.30;1.00
14031;DHT22;7090;49.436;8.490;2024-03-17T10:58:34;15.80;1.00
14031;DHT22;7090;49.436;8.490;2024-03-17T11:01:01;15.90;1.00
14031;DHT22;7090;49.436;8.490;2024-03-17T11:03:33;15.40;1.00
14031;DHT22;7090;49.436;8.490;2024-03-17T11:06:02;15.60;1.00
14031;DHT22;7090;49.436;8.490;2024-03-17T11:08:31;15.60;1.00
14031;DHT22;7090;49.436;8.490;2024-03-17T11:10:58;15.10;1.00
14031;DHT22;7090;49.436;8.490;2024-03-17T11:13:28;14.90;1.00
14031;DHT22;7090;49.436;8.490;2024-03-17T11:15:57;15.00;1.00
14031;DHT22;7090;49.436;8.490;2024-03-17T11:18:36;15.70;1.00
14031;DHT22;7090;49.436;8.490;2024-03-17T11:23:58;15.20;1.00
14031;DHT22;7090;49.436;8.490;2024-03-17T11:26:27;14.70;1.00
14031;DHT22;7090;49.436;8.490;2024-03-17T11:28:53;15.20;1.00
14031;DHT22;7090;49.436;8.490;2024-03-17T11:34:31;15.00;1.00
14031;DHT22;7090;49.436;8.490;2024-03-17T11:36:58;14.40;1.00
14031;DHT22;7090;49.436;8.490;2024-03-17T11:39:52;13.90;1.00
14031;DHT22;7090;49.436;8.490;2024-03-17T11:42:21;14.20;99.90
14031;DHT22;7090;49.436;8.490;2024-03-17T11:44:59;14.80;1.00
14031;DHT22;7090;49.436;8.490;2024-03-17T11:47:36;14.90;1.00
14031;DHT22;7090;49.436;8.490;2024-03-17T11:50:03;14.80;1.00
14031;DHT22;7090;49.436;8.490;2024-03-17T11:52:29;14.70;1.00
14031;DHT22;7090;49.436;8.490;2024-03-17T11:54:55;14.80;1.00
14031;DHT22;7090;49.436;8.490;2024-03-17T11:57:25;15.30;1.00
14031;DHT22;7090;49.436;8.490;2024-03-17T11:59:52;14.90;1.00
14031;DHT22;7090;49.436;8.490;2024-03-17T12:02:22;14.90;1.00
14031;DHT22;7090;49.436;8.490;2024-03-17T12:04:49;15.10;1.00
14031;DHT22;7090;49.436;8.490;2024-03-17T12:07:19;14.90;1.00
14031;DHT22;7090;49.436;8.490;2024-03-17T12:09:46;15.00;1.00
14031;DHT22;7090;49.436;8.490;2024-03-17T12:12:26;15.00;1.00
14031;DHT22;7090;49.436;8.490;2024-03-17T12:15:02;15.20;1.00
14031;DHT22;7090;49.436;8.490;2024-03-17T12:17:29;15.20;1.00
14031;DHT22;7090;49.436;8.490;2024-03-17T12:19:55;15.10;1.00
14031;DHT22;7090;49.436;8.490;2024-03-17T12:22:25;14.90;1.00
14031;DHT22;7090;49.436;8.490;2024-03-17T12:24:53;14.90;1.00
14031;DHT22;7090;49.436;8.490;2024-03-17T12:27:23;14.60;1.00
14031;DHT22;7090;49.436;8.490;2024-03-17T12:29:54;14.80;1.00
14031;DHT22;7090;49.436;8.490;2024-03-17T12:34:55;15.10;1.00
14031;DHT22;7090;49.436;8.490;2024-03-17T12:37:24;15.00;1.00
14031;DHT22;7090;49.436;8.490;2024-03-17T12:39:52;14.80;1.00
14031;DHT22;7090;49.436;8.490;2024-03-17T12:42:23;14.70;1.00
14031;DHT22;7090;49.436;8.490;2024-03-17T12:44:51;14.70;1.00
14031;DHT22;7090;49.436;8.490;2024-03-17T12:47:18;14.60;1.00
14031;DHT22;7090;49.436;8.490;2024-03-17T12:49:52;14.70;1.00
14031;DHT22;7090;49.436;8.490;2024-03-17T12:55:03;15.40;1.00
14031;DHT22;7090;49.436;8.490;2024-03-17T12:57:49;15.60;1.00
14031;DHT22;7090;49.436;8.490;2024-03-17T13:00:34;15.60;1.00
14031;DHT22;7090;49.436;8.490;2024-03-17T13:03:05;16.00;1.00
14031;DHT22;7090;49.436;8.490;2024-03-17T13:05:34;16.40;1.00
14031;DHT22;7090;49.436;8.490;2024-03-17T13:08:01;15.90;1.00
14031;DHT22;7090;49.436;8.490;2024-03-17T13:10:28;15.60;1.00
14031;DHT22;7090;49.436;8.490;2024-03-17T13:13:04;15.30;1.00
14031;DHT22;7090;49.436;8.490;2024-03-17T13:15:31;15.40;1.00
14031;DHT22;7090;49.436;8.490;2024-03-17T13:18:00;15.60;1.00
14031;DHT22;7090;49.436;8.490;2024-03-17T13:20:26;15.30;1.00
14031;DHT22;7090;49.436;8.490;2024-03-17T13:22:53;15.40;1.00
14031;DHT22;7090;49.436;8.490;2024-03-17T13:25:23;15.40;1.00
14031;DHT22;7090;49.436;8.490;2024-03-17T13:27:50;15.30;1.00
14031;DHT22;7090;49.436;8.490;2024-03-17T13:30:17;15.20;1.00
14031;DHT22;7090;49.436;8.490;2024-03-17T13:32:44;15.50;1.00
14031;DHT22;7090;49.436;8.490;2024-03-17T13:35:18;15.90;1.00
14031;DHT22;7090;49.436;8.490;2024-03-17T13:37:48;16.10;1.00
14031;DHT22;7090;49.436;8.490;2024-03-17T13:40:15;16.20;1.00
14031;DHT22;7090;49.436;8.490;2024-03-17T13:42:49;16.10;1.00
14031;DHT22;7090;49.436;8.490;2024-03-17T13:45:16;16.10;1.00
14031;DHT22;7090;49.436;8.490;2024-03-17T13:47:47;15.80;1.00
14031;DHT22;7090;49.436;8.490;2024-03-17T13:50:14;15.20;1.00
14031;DHT22;7090;49.436;8.490;2024-03-17T13:52:40;14.90;1.00
14031;DHT22;7090;49.436;8.490;2024-03-17T13:55:06;14.80;1.00
14031;DHT22;7090;49.436;8.490;2024-03-17T13:57:36;14.80;1.00
14031;DHT22;7090;49.436;8.490;2024-03-17T14:00:02;15.00;1.00
14031;DHT22;7090;49.436;8.490;2024-03-17T14:02:29;15.10;1.00
14031;DHT22;7090;49.436;8.490;2024-03-17T14:04:55;15.20;1.00
14031;DHT22;7090;49.436;8.490;2024-03-17T14:07:20;15.10;1.00
14031;DHT22;7090;49.436;8.490;2024-03-17T14:09:46;15.20;1.00
14031;DHT22;7090;49.436;8.490;2024-03-17T14:12:12;15.60;1.00
14031;DHT22;7090;49.436;8.490;2024-03-17T14:14:37;15.60;1.00
14031;DHT22;7090;49.436;8.490;2024-03-17T14:17:03;15.40;1.00
14031;DHT22;7090;49.436;8.490;2024-03-17T14:19:29;15.40;1.00
14031;DHT22;7090;49.436;8.490;2024-03-17T14:21:54;15.30;1.00
14031;DHT22;7090;49.436;8.490;2024-03-17T14:24:20;15.10;1.00
14031;DHT22;7090;49.436;8.490;2024-03-17T14:26:46;15.10;1.00
14031;DHT22;7090;49.436;8.490;2024-03-17T14:29:12;15.30;1.00
14031;DHT22;7090;49.436;8.490;2024-03-17T14:31:37;15.30;1.00
14031;DHT22;7090;49.436;8.490;2024-03-17T14:34:05;15.50;1.00
14031;DHT22;7090;49.436;8.490;2024-03-17T14:36:31;15.30;1.00
14031;DHT22;7090;49.436;8.490;2024-03-17T14:39:01;15.40;1.00
14031;DHT22;7090;49.436;8.490;2024-03-17T14:41:30;15.60;1.00
14031;DHT22;7090;49.436;8.490;2024-03-17T14:43:56;15.70;1.00
14031;DHT22;7090;49.436;8.490;2024-03-17T14:46:26;16.00;1.00
14031;DHT22;7090;49.436;8.490;2024-03-17T14:48:53;16.20;1.00
14031;DHT22;7090;49.436;8.490;2024-03-17T14:51:19;16.40;1.00
14031;DHT22;7090;49.436;8.490;2024-03-17T14:53:46;16.50;1.00
14031;DHT22;7090;49.436;8.490;2024-03-17T14:56:20;16.70;1.00
14031;DHT22;7090;49.436;8.490;2024-03-17T14:58:46;16.20;1.00
14031;DHT22;7090;49.436;8.490;2024-03-17T15:01:13;15.80;1.00
14031;DHT22;7090;49.436;8.490;2024-03-17T15:03:39;16.20;1.00
14031;DHT22;7090;49.436;8.490;2024-03-17T15:06:09;16.60;1.00
14031;DHT22;7090;49.436;8.490;2024-03-17T15:08:35;17.10;1.00
14031;DHT22;7090;49.436;8.490;2024-03-17T15:11:00;17.30;1.00
14031;DHT22;7090;49.436;8.490;2024-03-17T15:13:26;17.30;1.00
14031;DHT22;7090;49.436;8.490;2024-03-17T15:15:52;16.30;1.00
14031;DHT22;7090;49.436;8.490;2024-03-17T15:18:23;15.90;1.00
14031;DHT22;7090;49.436;8.490;2024-03-17T15:20:52;15.70;1.00
14031;DHT22;7090;49.436;8.490;2024-03-17T15:23:18;15.90;1.00
14031;DHT22;7090;49.436;8.490;2024-03-17T15:25:44;15.80;1.00
14031;DHT22;7090;49.436;8.490;2024-03-17T15:28:10;15.90;1.00
14031;DHT22;7090;49.436;8.490;2024-03-17T15:30:38;15.30;1.00
14031;DHT22;7090;49.436;8.490;2024-03-17T15:33:03;15.30;1.00
14031;DHT22;7090;49.436;8.490;2024-03-17T15:35:29;15.10;1.00
14031;DHT22;7090;49.436;8.490;2024-03-17T15:37:57;15.10;1.00
14031;DHT22;7090;49.436;8.490;2024-03-17T15:40:23;15.10;1.00
14031;DHT22;7090;49.436;8.490;2024-03-17T15:42:50;15.30;1.00
14031;DHT22;7090;49.436;8.490;2024-03-17T15:45:19;15.60;1.00
14031;DHT22;7090;49.436;8.490;2024-03-17T15:47:50;15.60;1.00
14031;DHT22;7090;49.436;8.490;2024-03-17T15:50:16;15.40;1.00
14031;DHT22;7090;49.436;8.490;2024-03-17T15:52:42;15.30;1.00
14031;DHT22;7090;49.436;8.490;2024-03-17T15:55:08;15.10;1.00
14031;DHT22;7090;49.436;8.490;2024-03-17T15:57:34;15.20;1.00
14031;DHT22;7090;49.436;8.490;2024-03-17T16:00:00;15.20;1.00
14031;DHT22;7090;49.436;8.490;2024-03-17T16:02:26;15.00;1.00
14031;DHT22;7090;49.436;8.490;2024-03-17T16:04:52;14.90;1.00
14031;DHT22;7090;49.436;8.490;2024-03-17T16:07:21;14.80;1.00
14031;DHT22;7090;49.436;8.490;2024-03-17T16:09:50;14.60;1.00
14031;DHT22;7090;49.436;8.490;2024-03-17T16:12:21;14.70;1.00
14031;DHT22;7090;49.436;8.490;2024-03-17T16:14:48;14.70;1.00
14031;DHT22;7090;49.436;8.490;2024-03-17T16:17:15;14.70;1.00
14031;DHT22;7090;49.436;8.490;2024-03-17T16:19:41;14.70;1.00
14031;DHT22;7090;49.436;8.490;2024-03-17T16:22:09;14.70;1.00